Hinkle, KY (40953)

2:33 PM EST on December 28, 2014 (GMT -0500)
liford's | Change Station
CLOSE
Current Station
Personal Weather Station
Location: Barbourville, KY
Elevation: 1066 ft
Nearby Weather Stations

Elev 1066 ft 36.84 °N, 83.85 °W | Updated 5 minutes ago

Rain
Rain
46.6 °F
Feels Like 47 °F
N
1.1
Wind Variable Wind from SW

Today
High -- | Low -- °F
--% Chance of Precip.
Yesterday
High -- | Low -- °F
Precip. -- in
7:47 AM 5:26 PM
Waxing Crescent, 50% visible
Pressure 30.07 in
Visibility 10.0 miles
Clouds Mostly Cloudy 1200 ft
Mostly Cloudy 1700 ft
Overcast 2200 ft
Windchill 47 °F
Dew Point 46 °F
Humidity 99%
Rainfall 0.62 in
Snow Depth Not available.
UV 1 out of 12
Pollen .10 out of 12
Air Quality Not available.
Flu Activity Not available.
METAR K1A6 281915Z AUTO 00000KT 10SM BKN012 BKN017 OVC022 10/09 A3007 RMK AO2 T00960090

More Conditions Fewer Conditions

Pressure 30.07 in
Visibility 10.0 miles
Clouds Mostly Cloudy 1200 ft
Mostly Cloudy 1700 ft
Overcast 2200 ft
Windchill 47 °F
Dew Point 46 °F
Humidity 99%
Rainfall 0.62 in
Snow Depth Not available.
UV 1 out of 12
Pollen .10 out of 12
Air Quality Not available.
Flu Activity Not available.
METAR K1A6 281915Z AUTO 00000KT 10SM BKN012 BKN017 OVC022 10/09 A3007 RMK AO2 T00960090

More Conditions Fewer Conditions

10-Day Weather Forecast

Almanac

Astronomy

Dec. 28, 2014 Rise Set
Actual Time
Civil Twilight
Nautical Twilight
Astronomical Twilight
Moon
Length of Visible Light
Length of Day
Tomorrow will be .
, % of the Moon is Illuminated

Today's Extremes

State Highs State Lows

Community

WunderPhotos

Upload Photos

1,781,401 photos uploaded!

WunderBlogs® & News

Nearby

Air Quality

  Air Quality AQ Index Pollutant
Not available.

Snow Depth

Station Depth Elevation

Earthquake Activity

City Distance Mag. Time & Date
Minimum magnitude displayed is 2.5.

Coastal Water Temperatures

Place Temperature

Nearby Weather Stations